Blue Star Naxos — SZUI — position and weather

sailwx.info

Track history (hours):
 
Tides and Currents Weather Stations Pressure Air Temp Water Temp Dewpoint Dewpoint Depression Visibility Wind Speed Wind Dir Waves Ship Positions

Blue Star Naxos

Last reported at 2016-Sep-28 21:14 UTC. Time now 2016-Sep-29 08:28 UTC.
Position N 37°12' E 025°29'.

Length 124 m; draft 5 m.

Type: Passenger vessel. MMSI: 239923000.

Date/timePositionNaut miles runAvg speedWind from/ knotsBaromVisibWave heightAir tempDewpointWater temp
2016-Sep-28 21:14N 37°12' E 025°29'6714.0
2016-Sep-28 16:28N 37°26' E 024°07'2022.1
2016-Sep-28 15:34N 37°37' E 023°46'20 6.8
2016-Sep-28 12:33N 37°57' E 023°38'7518.4
2016-Sep-28 08:30N 37°10' E 024°52'75 4.2
2016-Sep-27 14:33N 37°57' E 023°38'0 0.2
2016-Sep-27 13:33N 37°57' E 023°38'97 5.7
2016-Sep-26 20:34N 37°06' E 025°22'8316.5
2016-Sep-26 15:33N 37°38' E 023°46'2010.0
2016-Sep-26 13:33N 37°57' E 023°38'14 7.1
2016-Sep-26 11:34N 37°43' E 023°44'6521.7
2016-Sep-26 08:33N 37°09' E 024°54'21 1.9
2016-Sep-25 21:33N 37°06' E 025°20'4210.3
2016-Sep-25 17:29N 37°31' E 024°37'2021.4
2016-Sep-25 16:33N 37°31' E 024°13'2221.8
2016-Sep-25 15:33N 37°38' E 023°47'1919.3
2016-Sep-25 14:33N 37°56' E 023°38'1 0.3
2016-Sep-25 12:33N 37°57' E 023°38'1212.4
2016-Sep-25 11:34N 37°45' E 023°43'90 6.3
2016-Sep-24 21:20N 36°59' E 025°20'24 8.6
2016-Sep-24 18:34N 37°10' E 024°54'4420.7
2016-Sep-24 16:27N 37°28' E 024°03'3518.8
2016-Sep-24 14:34N 37°57' E 023°38'0 0.0
2016-Sep-24 12:33N 37°57' E 023°38'0 0.0
2016-Sep-24 10:33N 37°57' E 023°38'0 0.0
2016-Sep-24 09:33N 37°57' E 023°38'0 0.0
2016-Sep-24 03:33N 37°57' E 023°38'0 0.0
2016-Sep-24 02:33N 37°57' E 023°38'0 0.0
2016-Sep-24 01:33N 37°57' E 023°38'0 0.0
2016-Sep-24 00:33N 37°57' E 023°38'0 0.0
2016-Sep-23 19:33N 37°57' E 023°38'0 0.0
2016-Sep-23 17:33N 37°57' E 023°38'0 0.0
2016-Sep-23 16:33N 37°57' E 023°38'0 0.0
2016-Sep-23 15:33N 37°57' E 023°38'0 0.0
2016-Sep-23 13:33N 37°57' E 023°38'0 0.0
2016-Sep-23 09:33N 37°57' E 023°38'0 0.0
2016-Sep-23 06:33N 37°57' E 023°38'0 0.0
2016-Sep-23 04:33N 37°57' E 023°38'0 0.0
2016-Sep-23 03:33N 37°57' E 023°38'0 0.0
2016-Sep-23 02:33N 37°57' E 023°38'0 0.0
2016-Sep-23 01:33N 37°57' E 023°38'0 0.0
2016-Sep-23 00:33N 37°57' E 023°38'0 0.0
2016-Sep-22 23:33N 37°57' E 023°38'0 0.0
2016-Sep-22 20:33N 37°57' E 023°38'0 0.0
2016-Sep-22 12:33N 37°57' E 023°38'36 1.8
2016-Sep-21 16:33N 37°32' E 024°12'38 4.7
2016-Sep-21 08:29N 37°14' E 024°54'25 8.5
2016-Sep-21 05:33N 37°00' E 025°20'98 6.6
2016-Sep-20 14:33N 37°56' E 023°38'0 0.4
2016-Sep-20 13:33N 37°57' E 023°38'7314.6
2016-Sep-20 08:34N 37°14' E 024°53'1611.1
2016-Sep-20 07:05N 37°09' E 025°13'815.1
2016-Sep-20 06:34N 37°06' E 025°22'18 1.5
2016-Sep-19 18:33N 37°11' E 024°60'4321.6
2016-Sep-19 16:33N 37°32' E 024°12'3718.4
2016-Sep-19 14:34N 37°57' E 023°38'0 0.4
2016-Sep-19 13:33N 37°57' E 023°38'0 0.0
2016-Sep-19 12:33N 37°57' E 023°38'9 9.4
2016-Sep-19 11:34N 37°48' E 023°42'9018.0
2016-Sep-19 06:33N 37°06' E 025°22'  
Track history (hours):
 
Tides and Currents Weather Stations Pressure Air Temp Water Temp Dewpoint Dewpoint Depression Visibility Wind Speed Wind Dir Waves Ship Positions

Blue Star Naxos

Last reported at 2016-Sep-28 21:14 UTC. Time now 2016-Sep-29 08:28 UTC.
Position N 37°12' E 025°29'.

Length 124 m; draft 5 m.

Type: Passenger vessel. MMSI: 239923000.

Date/timePositionNaut miles runAvg speedWind from/ knotsBaromVisibWave heightAir tempDewpointWater temp
2016-Sep-28 21:14N 37°12' E 025°29'6714.0
2016-Sep-28 16:28N 37°26' E 024°07'2022.1
2016-Sep-28 15:34N 37°37' E 023°46'20 6.8
2016-Sep-28 12:33N 37°57' E 023°38'7518.4
2016-Sep-28 08:30N 37°10' E 024°52'75 4.2
2016-Sep-27 14:33N 37°57' E 023°38'0 0.2
2016-Sep-27 13:33N 37°57' E 023°38'97 5.7
2016-Sep-26 20:34N 37°06' E 025°22'8316.5
2016-Sep-26 15:33N 37°38' E 023°46'2010.0
2016-Sep-26 13:33N 37°57' E 023°38'14 7.1
2016-Sep-26 11:34N 37°43' E 023°44'6521.7
2016-Sep-26 08:33N 37°09' E 024°54'21 1.9
2016-Sep-25 21:33N 37°06' E 025°20'4210.3
2016-Sep-25 17:29N 37°31' E 024°37'2021.4
2016-Sep-25 16:33N 37°31' E 024°13'2221.8
2016-Sep-25 15:33N 37°38' E 023°47'1919.3
2016-Sep-25 14:33N 37°56' E 023°38'1 0.3
2016-Sep-25 12:33N 37°57' E 023°38'1212.4
2016-Sep-25 11:34N 37°45' E 023°43'90 6.3
2016-Sep-24 21:20N 36°59' E 025°20'24 8.6
2016-Sep-24 18:34N 37°10' E 024°54'4420.7
2016-Sep-24 16:27N 37°28' E 024°03'3518.8
2016-Sep-24 14:34N 37°57' E 023°38'0 0.0
2016-Sep-24 12:33N 37°57' E 023°38'0 0.0
2016-Sep-24 10:33N 37°57' E 023°38'0 0.0
2016-Sep-24 09:33N 37°57' E 023°38'0 0.0
2016-Sep-24 03:33N 37°57' E 023°38'0 0.0
2016-Sep-24 02:33N 37°57' E 023°38'0 0.0
2016-Sep-24 01:33N 37°57' E 023°38'0 0.0
2016-Sep-24 00:33N 37°57' E 023°38'0 0.0
2016-Sep-23 19:33N 37°57' E 023°38'0 0.0
2016-Sep-23 17:33N 37°57' E 023°38'0 0.0
2016-Sep-23 16:33N 37°57' E 023°38'0 0.0
2016-Sep-23 15:33N 37°57' E 023°38'0 0.0
2016-Sep-23 13:33N 37°57' E 023°38'0 0.0
2016-Sep-23 09:33N 37°57' E 023°38'0 0.0
2016-Sep-23 06:33N 37°57' E 023°38'0 0.0
2016-Sep-23 04:33N 37°57' E 023°38'0 0.0
2016-Sep-23 03:33N 37°57' E 023°38'0 0.0
2016-Sep-23 02:33N 37°57' E 023°38'0 0.0
2016-Sep-23 01:33N 37°57' E 023°38'0 0.0
2016-Sep-23 00:33N 37°57' E 023°38'0 0.0
2016-Sep-22 23:33N 37°57' E 023°38'0 0.0
2016-Sep-22 20:33N 37°57' E 023°38'0 0.0
2016-Sep-22 12:33N 37°57' E 023°38'36 1.8
2016-Sep-21 16:33N 37°32' E 024°12'38 4.7
2016-Sep-21 08:29N 37°14' E 024°54'25 8.5
2016-Sep-21 05:33N 37°00' E 025°20'98 6.6
2016-Sep-20 14:33N 37°56' E 023°38'0 0.4
2016-Sep-20 13:33N 37°57' E 023°38'7314.6
2016-Sep-20 08:34N 37°14' E 024°53'1611.1
2016-Sep-20 07:05N 37°09' E 025°13'815.1
2016-Sep-20 06:34N 37°06' E 025°22'18 1.5
2016-Sep-19 18:33N 37°11' E 024°60'4321.6
2016-Sep-19 16:33N 37°32' E 024°12'3718.4
2016-Sep-19 14:34N 37°57' E 023°38'0 0.4
2016-Sep-19 13:33N 37°57' E 023°38'0 0.0
2016-Sep-19 12:33N 37°57' E 023°38'9 9.4
2016-Sep-19 11:34N 37°48' E 023°42'9018.0
2016-Sep-19 06:33N 37°06' E 025°22'  

Dump ship's entire track history